Time;durP1;ratioP1;P1;durP2;ratioP2;P2;SDS_P1;SDS_P2;PMS_P1;PMS_P2;Temp;Humidity;BMP_temperature;BMP_pressure;BME280_temperature;BME280_humidity;BME280_pressure;Samples;Min_cycle;Max_cycle;Signal;HPM_P1;HPM_P2
2023/04/23 00:02:18;;;;;;;7.78;6.63;;;14.60;99.90;;;-141.84;62.16;20431.72;5031838;28;20213;-56
2023/04/23 00:04:52;;;;;;;8.40;6.72;;;14.60;99.90;;;-141.84;61.91;20419.53;5032120;28;20309;-59
2023/04/23 00:07:22;;;;;;;9.50;6.95;;;14.60;99.90;;;-141.84;62.35;20382.94;5032186;28;20186;-57
2023/04/23 00:09:57;;;;;;;7.88;7.03;;;14.60;99.90;;;-141.84;62.77;20421.56;5032188;28;20214;-58
2023/04/23 00:12:26;;;;;;;7.63;6.75;;;14.60;99.90;;;-141.84;63.40;20415.47;5033990;28;20220;-57
2023/04/23 00:14:56;;;;;;;8.07;6.65;;;14.60;99.90;;;-141.84;63.75;20378.88;5035437;28;20720;-57
2023/04/23 00:17:24;;;;;;;8.88;6.80;;;14.60;99.90;;;-141.84;63.52;20411.41;5035594;28;20627;-58
2023/04/23 00:19:52;;;;;;;7.65;6.80;;;14.60;99.90;;;-141.84;62.75;20423.59;5034990;28;20289;-58
2023/04/23 00:22:21;;;;;;;8.90;7.40;;;14.60;99.90;;;-141.84;62.23;20423.59;5035522;28;20202;-57
2023/04/23 00:24:49;;;;;;;9.32;6.95;;;14.60;99.90;;;-141.84;62.31;20411.41;5035488;28;20229;-58
2023/04/23 00:27:19;;;;;;;7.70;6.25;;;14.50;99.90;;;-141.84;61.87;20407.34;5034760;28;20234;-61
2023/04/23 00:29:49;;;;;;;8.02;7.22;;;14.60;99.90;;;-141.84;62.00;20397.16;5035330;28;20241;-55
2023/04/23 00:32:17;;;;;;;7.82;6.65;;;14.60;99.90;;;-141.84;62.30;20429.69;5035403;28;20201;-58
2023/04/23 00:34:47;;;;;;;7.88;7.07;;;14.60;99.90;;;-141.84;62.63;20423.59;5035282;28;20285;-57
2023/04/23 00:37:15;;;;;;;7.05;6.35;;;14.60;99.90;;;-141.84;62.54;20423.59;5035288;28;20206;-60
2023/04/23 00:39:44;;;;;;;9.55;6.90;;;14.60;99.90;;;-141.84;62.58;20431.72;5035159;28;20202;-59
2023/04/23 00:42:12;;;;;;;7.75;6.60;;;14.60;99.90;;;-141.84;62.77;20435.78;5034813;28;20239;-58
2023/04/23 00:44:43;;;;;;;6.43;5.72;;;14.70;99.90;;;-141.84;62.44;20425.63;5034965;28;20202;-55
2023/04/23 00:47:11;;;;;;;7.53;6.40;;;14.70;99.90;;;-141.84;62.71;20431.72;5034895;28;20190;-58
2023/04/23 00:49:40;;;;;;;7.07;6.38;;;14.60;99.90;;;-141.84;63.54;20443.91;5034860;28;20549;-58
2023/04/23 00:52:08;;;;;;;9.00;6.13;;;14.70;99.90;;;-141.84;63.35;20417.50;5035094;28;20209;-55
2023/04/23 00:54:36;;;;;;;8.45;6.47;;;14.60;99.90;;;-141.84;63.04;20395.13;5034917;28;20202;-55
2023/04/23 00:57:06;;;;;;;6.57;5.88;;;14.70;99.90;;;-141.84;62.58;20456.13;5034688;28;20220;-58
2023/04/23 00:59:36;;;;;;;7.25;6.53;;;14.70;99.90;;;-141.84;62.97;20384.97;5034851;28;20190;-58
2023/04/23 01:02:05;;;;;;;6.88;6.18;;;14.60;99.90;;;-141.84;62.79;20407.34;5034792;28;20202;-56
2023/04/23 01:04:36;;;;;;;7.50;5.97;;;14.70;99.90;;;-141.84;63.86;20391.06;5035111;28;20217;-58
2023/04/23 01:07:04;;;;;;;9.32;6.15;;;14.60;99.90;;;-141.84;64.74;20399.19;5034918;28;20209;-58
2023/04/23 01:09:33;;;;;;;6.68;5.70;;;14.50;99.90;;;-141.84;65.78;20364.66;5034714;28;20201;-58
2023/04/23 01:12:02;;;;;;;6.97;6.30;;;14.50;99.90;;;-141.84;67.04;20330.09;5034417;28;20275;-56
2023/04/23 01:14:30;;;;;;;6.80;6.10;;;14.40;99.90;;;-141.84;67.82;20303.66;5034555;28;20202;-59
2023/04/23 01:16:59;;;;;;;7.30;5.95;;;14.40;99.90;;;-141.84;68.57;20330.09;5034543;28;20194;-57
2023/04/23 01:19:28;;;;;;;6.68;6.05;;;14.30;99.90;;;-141.84;70.55;20291.47;5034251;28;20673;-55
2023/04/23 01:22:00;;;;;;;6.90;6.22;;;14.20;99.90;;;-141.84;72.18;20303.66;5034389;28;20201;-56
2023/04/23 01:24:31;;;;;;;8.07;6.47;;;14.10;99.90;;;-141.84;73.15;20226.44;5033540;28;20251;-58
2023/04/23 01:27:00;;;;;;;7.97;6.57;;;14.00;99.90;;;-141.84;74.24;20200.00;5033695;28;20238;-58
2023/04/23 01:29:29;;;;;;;8.57;5.95;;;13.90;99.90;;;-141.84;74.68;20216.25;5034061;28;20202;-55
2023/04/23 01:31:59;;;;;;;7.63;6.45;;;13.80;99.90;;;-141.84;75.10;20212.19;5034176;28;20206;-54
2023/04/23 01:34:28;;;;;;;8.32;6.43;;;13.80;99.90;;;-141.84;75.77;20226.44;5035353;28;20209;-55
2023/04/23 01:36:57;;;;;;;7.00;6.35;;;13.70;99.90;;;-141.84;75.44;20234.56;5034224;28;20222;-58
2023/04/23 01:39:26;;;;;;;8.75;6.72;;;13.70;99.90;;;-141.84;75.70;20204.06;5034230;28;20198;-57
2023/04/23 01:41:56;;;;;;;6.80;6.10;;;13.70;99.90;;;-141.84;76.19;20161.38;5033833;28;20217;-53
2023/04/23 01:44:24;;;;;;;7.78;6.57;;;13.60;99.90;;;-141.84;76.61;20173.59;5034186;28;20189;-57
2023/04/23 01:46:53;;;;;;;6.80;6.20;;;13.60;99.90;;;-141.84;76.84;20175.63;5033982;28;20561;-58
2023/04/23 01:49:21;;;;;;;7.57;6.82;;;13.60;99.90;;;-141.84;76.63;20185.78;5033885;28;20212;-56
2023/04/23 01:51:49;;;;;;;7.50;6.80;;;13.60;99.90;;;-141.84;75.82;20191.88;5033520;28;20677;-56
2023/04/23 01:54:18;;;;;;;7.73;6.93;;;13.60;99.90;;;-141.84;75.97;20175.63;5033759;28;20213;-57
2023/04/23 01:56:46;;;;;;;7.13;6.45;;;13.60;99.90;;;-141.84;76.39;20167.47;5033573;28;20220;-57
2023/04/23 01:59:16;;;;;;;7.10;6.40;;;13.60;99.90;;;-141.84;76.83;20179.69;5033710;28;20206;-56
2023/04/23 02:01:46;;;;;;;9.30;6.57;;;13.60;99.90;;;-141.84;77.02;20147.16;5033342;28;20255;-59
2023/04/23 02:04:16;;;;;;;7.40;6.70;;;13.60;99.90;;;-141.84;77.19;20151.22;5033375;28;20190;-57
2023/04/23 02:06:49;;;;;;;7.20;6.53;;;13.60;99.90;;;-141.84;76.83;20193.91;5033732;28;20222;-57
2023/04/23 02:09:17;;;;;;;7.03;6.43;;;13.70;99.90;;;-141.84;76.89;20141.06;5033350;28;20190;-56
2023/04/23 02:11:45;;;;;;;7.78;7.07;;;13.70;99.90;;;-141.84;77.28;20179.69;5033318;28;20228;-57
2023/04/23 02:14:16;;;;;;;7.13;6.45;;;13.70;99.90;;;-141.84;77.53;20220.34;5033289;28;20595;-58
2023/04/23 02:16:44;;;;;;;7.05;6.03;;;13.70;99.90;;;-141.84;77.56;20147.16;5033395;28;20194;-56
2023/04/23 02:19:14;;;;;;;7.03;6.43;;;13.70;99.90;;;-141.84;77.75;20143.09;5033487;28;20209;-54
2023/04/23 02:21:43;;;;;;;7.13;6.32;;;13.70;99.90;;;-141.84;77.92;20159.34;5033376;28;20201;-56
2023/04/23 02:24:11;;;;;;;7.15;6.55;;;13.70;99.90;;;-141.84;77.05;20161.38;5033326;28;20210;-57
2023/04/23 02:26:39;;;;;;;6.57;5.88;;;13.70;99.90;;;-141.84;75.58;20167.47;5032666;28;20266;-57
2023/04/23 02:29:07;;;;;;;6.57;5.97;;;13.80;99.90;;;-141.84;75.39;20155.28;5033062;28;20205;-57
2023/04/23 02:31:37;;;;;;;7.05;6.45;;;13.80;99.90;;;-141.84;75.95;20173.59;5033064;28;20202;-56
2023/04/23 02:34:05;;;;;;;6.47;5.88;;;13.80;99.90;;;-141.84;76.60;20171.56;5032666;28;20650;-57
2023/04/23 02:36:33;;;;;;;7.38;6.35;;;13.80;99.90;;;-141.84;77.18;20120.75;5033052;28;20571;-55
2023/04/23 02:39:01;;;;;;;6.40;5.78;;;13.80;99.90;;;-141.84;77.58;20151.22;5032996;28;20208;-56
2023/04/23 02:41:29;;;;;;;7.63;6.38;;;13.70;99.90;;;-141.84;76.72;20147.16;5032773;28;20206;-54
2023/04/23 02:43:58;;;;;;;6.85;6.18;;;13.80;99.90;;;-141.84;76.28;20126.84;5032831;28;20206;-57
2023/04/23 02:46:26;;;;;;;7.15;6.45;;;13.80;99.90;;;-141.84;75.82;20149.19;5032910;28;20445;-57
2023/04/23 02:48:56;;;;;;;7.53;6.60;;;13.80;99.90;;;-141.84;75.54;20161.38;5032694;28;20285;-56
2023/04/23 02:51:24;;;;;;;7.13;6.50;;;13.80;99.90;;;-141.84;75.43;20171.56;5032535;28;20212;-57
2023/04/23 02:53:53;;;;;;;8.15;6.70;;;13.80;99.90;;;-141.84;75.44;20161.38;5032771;28;20213;-54
2023/04/23 02:56:21;;;;;;;6.22;5.72;;;13.90;99.90;;;-141.84;74.15;20165.44;5032412;28;20202;-57
2023/04/23 02:58:49;;;;;;;7.35;5.97;;;13.90;99.90;;;-141.84;73.88;20195.94;5032283;28;20803;-59
2023/04/23 03:01:17;;;;;;;8.25;6.55;;;14.00;99.90;;;-141.84;73.64;20197.97;5032745;28;20217;-55
2023/04/23 03:03:46;;;;;;;6.43;5.80;;;14.00;99.90;;;-141.84;73.39;20179.69;5032411;28;20206;-59
2023/04/23 03:06:15;;;;;;;6.55;5.82;;;14.00;99.90;;;-141.84;73.34;20230.50;5032617;28;20225;-56
2023/04/23 03:08:44;;;;;;;7.10;6.30;;;14.00;99.90;;;-141.84;73.84;20185.78;5032402;28;20646;-59
2023/04/23 03:11:12;;;;;;;5.85;5.32;;;14.00;99.90;;;-141.84;74.48;20202.03;5032543;28;20205;-71
2023/04/23 03:13:40;;;;;;;6.93;6.25;;;14.00;99.90;;;-141.84;74.65;20187.81;5032189;28;20206;-71
2023/04/23 03:16:08;;;;;;;6.95;6.00;;;14.00;99.90;;;-141.84;74.85;20169.53;5032042;28;20237;-72
2023/04/23 03:18:37;;;;;;;6.38;5.75;;;14.00;99.90;;;-141.84;75.24;20155.28;5031904;28;20580;-71
2023/04/23 03:21:05;;;;;;;7.13;6.35;;;13.90;99.90;;;-141.84;75.15;20134.97;5032404;28;20570;-72
2023/04/23 03:23:36;;;;;;;6.60;6.00;;;13.90;99.90;;;-141.84;74.98;20163.41;5032486;28;20202;-70
2023/04/23 03:26:04;;;;;;;6.65;6.07;;;13.90;99.90;;;-141.84;74.89;20171.56;5032216;28;20228;-70
2023/04/23 03:28:32;;;;;;;6.15;5.65;;;13.90;99.90;;;-141.84;74.76;20167.47;5032731;28;20563;-71
2023/04/23 03:31:00;;;;;;;6.32;5.78;;;13.90;99.90;;;-141.84;74.62;20139.03;5032182;28;20206;-71
2023/04/23 03:33:29;;;;;;;6.35;5.75;;;13.90;99.90;;;-141.84;74.60;20177.66;5033124;28;20228;-70
2023/04/23 03:35:57;;;;;;;6.57;5.97;;;13.90;99.90;;;-141.84;74.73;20159.34;5032497;28;20205;-71
2023/04/23 03:38:25;;;;;;;7.07;6.15;;;13.90;99.90;;;-141.84;75.05;20149.19;5032189;28;20336;-70
2023/04/23 03:40:55;;;;;;;7.93;6.30;;;13.90;99.90;;;-141.84;75.17;20151.22;5032662;28;20205;-71
2023/04/23 03:43:24;;;;;;;6.65;5.97;;;13.90;99.90;;;-141.84;75.35;20128.88;5032899;28;20669;-70
2023/04/23 03:45:52;;;;;;;7.75;6.32;;;13.80;99.90;;;-141.84;75.43;20130.91;5033238;28;20206;-72
2023/04/23 03:48:20;;;;;;;6.82;6.13;;;13.80;99.90;;;-141.84;75.79;20143.09;5037232;28;20592;-72
2023/04/23 03:50:49;;;;;;;6.70;6.10;;;13.80;99.90;;;-141.84;75.85;20126.84;5037148;28;20209;-72
2023/04/23 03:53:17;;;;;;;6.78;6.22;;;13.80;99.90;;;-141.84;75.44;20132.94;5036665;28;20202;-71
2023/04/23 03:55:45;;;;;;;8.13;6.05;;;13.80;99.90;;;-141.84;75.66;20112.59;5036168;28;20203;-72
2023/04/23 03:58:15;;;;;;;6.60;6.00;;;13.80;99.90;;;-141.84;76.03;20151.22;5035394;28;20201;-71
2023/04/23 04:00:44;;;;;;;6.72;6.13;;;13.80;99.90;;;-141.84;76.49;20122.78;5036219;28;20254;-71
2023/04/23 04:03:12;;;;;;;7.35;6.65;;;13.80;99.90;;;-141.84;77.40;20110.56;5036257;28;20681;-72
2023/04/23 04:05:41;;;;;;;8.48;6.93;;;13.80;99.90;;;-141.84;77.89;20090.25;5036485;28;20253;-71
2023/04/23 04:08:10;;;;;;;7.10;6.50;;;13.70;99.90;;;-141.84;78.70;20090.25;5036398;28;20230;-71
2023/04/23 04:10:38;;;;;;;7.10;6.40;;;13.70;99.90;;;-141.84;79.04;20092.28;5036494;28;20206;-71
2023/04/23 04:13:06;;;;;;;7.72;6.93;;;13.60;99.90;;;-141.84;78.92;20063.81;5036603;28;20212;-71
2023/04/23 04:15:35;;;;;;;8.00;6.60;;;13.60;99.90;;;-141.84;79.19;20065.84;5036310;28;20202;-72
2023/04/23 04:18:03;;;;;;;8.07;6.45;;;13.60;99.90;;;-141.84;79.38;20057.72;5036320;28;20194;-71
2023/04/23 04:20:32;;;;;;;7.13;6.53;;;13.50;99.90;;;-141.84;79.49;20043.50;5035525;28;20219;-72
2023/04/23 04:23:00;;;;;;;8.00;6.75;;;13.50;99.90;;;-141.84;79.63;20045.53;5035929;28;20577;-69
2023/04/23 04:25:28;;;;;;;7.68;6.68;;;13.50;99.90;;;-141.84;79.56;20057.72;5035696;28;20244;-71
2023/04/23 04:27:57;;;;;;;7.30;6.10;;;13.50;99.90;;;-141.84;79.63;20080.09;5035247;28;20206;-71
2023/04/23 04:30:26;;;;;;;8.13;6.37;;;13.50;99.90;;;-141.84;79.33;20061.78;5035396;28;20206;-71
2023/04/23 04:32:55;;;;;;;6.95;6.25;;;13.50;99.90;;;-141.84;79.55;20108.53;5035229;28;20198;-72
2023/04/23 04:35:24;;;;;;;6.13;5.60;;;13.60;99.90;;;-141.84;79.88;20055.69;5035604;28;20206;-73
2023/04/23 04:37:52;;;;;;;6.68;6.07;;;13.50;99.90;;;-141.84;79.68;20055.69;5035099;28;20666;-72
2023/04/23 04:40:21;;;;;;;6.90;6.20;;;13.60;99.90;;;-141.84;79.50;20067.88;5035345;28;20206;-71
2023/04/23 04:42:50;;;;;;;6.50;5.88;;;13.60;99.90;;;-141.84;79.51;20078.06;5034634;28;20225;-72
2023/04/23 04:45:18;;;;;;;7.07;5.70;;;13.60;99.90;;;-141.84;79.37;20055.69;5035079;28;20670;-71
2023/04/23 04:47:46;;;;;;;6.03;5.53;;;13.60;99.90;;;-141.84;79.35;20049.59;5035126;28;20244;-70
2023/04/23 04:50:16;;;;;;;6.45;5.85;;;13.60;99.90;;;-141.84;79.03;20069.94;5035021;28;20784;-70
2023/04/23 04:52:44;;;;;;;7.15;6.45;;;13.60;99.90;;;-141.84;78.79;20061.78;5035100;28;20217;-69
2023/04/23 04:55:12;;;;;;;6.95;6.35;;;13.60;99.90;;;-141.84;78.52;20065.84;5035139;28;20206;-71
2023/04/23 04:57:40;;;;;;;6.93;6.32;;;13.60;99.90;;;-141.84;78.34;20078.06;5034648;28;20194;-70
2023/04/23 05:00:26;;;;;;;7.27;6.57;;;13.60;99.90;;;-141.84;78.09;20090.25;5035221;28;20314;-71
2023/04/23 05:02:55;;;;;;;6.40;5.80;;;13.70;99.90;;;-141.84;78.11;20063.81;5035139;28;20189;-70
2023/04/23 05:05:26;;;;;;;6.90;6.20;;;13.70;99.90;;;-141.84;77.99;20065.84;5035341;28;20198;-71
2023/04/23 05:07:57;;;;;;;6.28;5.68;;;13.70;99.90;;;-141.84;77.54;20076.03;5034708;28;20208;-71
2023/04/23 05:10:26;;;;;;;6.32;5.72;;;13.70;99.90;;;-141.84;77.62;20069.94;5034760;28;20214;-71
2023/04/23 05:12:54;;;;;;;6.60;5.97;;;13.70;99.90;;;-141.84;77.58;20069.94;5034593;28;20228;-71
2023/04/23 05:15:22;;;;;;;6.28;5.68;;;13.70;99.90;;;-141.84;77.58;20102.44;5034025;28;20297;-71
2023/04/23 05:17:52;;;;;;;6.72;5.93;;;13.70;99.90;;;-141.84;77.47;20092.28;5034270;28;20205;-72
2023/04/23 05:20:21;;;;;;;5.93;5.43;;;13.70;99.90;;;-141.84;77.00;20080.09;5034598;28;20202;-71
2023/04/23 05:22:51;;;;;;;5.50;5.00;;;13.80;99.90;;;-141.84;76.81;20063.81;5034300;28;20202;-72
2023/04/23 05:25:19;;;;;;;6.00;5.50;;;13.80;99.90;;;-141.84;76.86;20076.03;5033699;28;20209;-72
2023/04/23 05:27:47;;;;;;;6.00;5.47;;;13.80;99.90;;;-141.84;77.03;20114.63;5033582;28;20214;-71
2023/04/23 05:30:15;;;;;;;6.75;4.88;;;13.80;99.90;;;-141.84;76.13;20112.59;5034312;28;20202;-70
2023/04/23 05:32:44;;;;;;;5.65;4.40;;;13.80;99.90;;;-141.84;74.69;20098.38;5034119;28;20677;-72
2023/04/23 05:35:12;;;;;;;4.70;4.25;;;13.80;99.90;;;-141.84;73.96;20130.91;5034197;28;20289;-71
2023/04/23 05:37:41;;;;;;;4.28;3.88;;;13.90;99.90;;;-141.84;73.11;20134.97;5034337;28;20198;-71
2023/04/23 05:40:12;;;;;;;3.53;3.22;;;13.90;99.90;;;-141.84;71.73;20185.78;5034034;28;20553;-71
2023/04/23 05:42:40;;;;;;;4.47;3.17;;;14.00;99.90;;;-141.84;71.22;20206.09;5033838;28;20567;-71
2023/04/23 05:45:09;;;;;;;5.20;3.30;;;14.20;99.90;;;-141.84;71.15;20200.00;5033855;28;20206;-72
2023/04/23 05:47:38;;;;;;;3.92;3.05;;;14.30;99.90;;;-141.84;71.62;20193.91;5033627;28;20221;-70
2023/04/23 05:50:07;;;;;;;4.68;3.35;;;14.30;99.90;;;-141.84;70.88;20238.63;5034091;28;20268;-72
2023/04/23 05:52:36;;;;;;;3.45;3.15;;;14.40;99.90;;;-141.84;69.68;20256.91;5033992;28;20730;-73
2023/04/23 05:55:06;;;;;;;3.80;3.28;;;14.50;99.90;;;-141.84;70.22;20250.81;5033675;28;20210;-71
2023/04/23 05:57:36;;;;;;;4.82;3.50;;;14.50;99.90;;;-141.84;70.76;20244.72;5033804;28;20183;-71
2023/04/23 06:00:08;;;;;;;4.57;3.90;;;14.60;99.90;;;-141.84;70.50;20210.16;5033909;28;20213;-71
2023/04/23 06:02:36;;;;;;;4.32;3.90;;;14.60;99.90;;;-141.84;71.56;20212.19;5034147;28;20186;-70
2023/04/23 06:05:06;;;;;;;4.18;3.78;;;14.50;99.90;;;-141.84;71.85;20200.00;5033752;28;20268;-72
2023/04/23 06:07:35;;;;;;;4.50;4.10;;;14.50;99.90;;;-141.84;71.28;20224.41;5033608;28;20203;-71
2023/04/23 06:10:05;;;;;;;4.95;3.53;;;14.50;99.90;;;-141.84;71.85;20189.84;5033133;28;20208;-71
2023/04/23 06:12:33;;;;;;;4.30;3.90;;;14.50;99.90;;;-141.84;71.39;20252.84;5033122;28;20199;-71
2023/04/23 06:15:02;;;;;;;4.10;3.55;;;14.50;99.90;;;-141.84;71.71;20214.22;5033809;28;20205;-71
2023/04/23 06:17:30;;;;;;;5.03;3.72;;;14.50;99.90;;;-141.84;71.50;20238.63;5033615;28;20213;-71
2023/04/23 06:19:58;;;;;;;5.25;3.90;;;14.60;99.90;;;-141.84;72.09;20263.00;5033356;28;20271;-71
2023/04/23 06:22:26;;;;;;;5.78;3.83;;;14.70;99.90;;;-141.84;71.71;20246.75;5033343;28;20206;-71
2023/04/23 06:24:55;;;;;;;4.68;3.40;;;14.70;99.90;;;-141.84;71.30;20287.41;5033387;28;20256;-72
2023/04/23 06:27:23;;;;;;;4.00;3.42;;;14.70;99.90;;;-141.84;71.72;20248.78;5033374;28;20237;-72
2023/04/23 06:29:51;;;;;;;3.60;3.30;;;14.70;99.90;;;-141.84;71.59;20256.91;5033259;28;20230;-72
2023/04/23 06:32:21;;;;;;;3.65;3.00;;;14.80;99.90;;;-141.84;71.45;20307.72;5032831;28;20198;-71
2023/04/23 06:34:50;;;;;;;3.60;3.30;;;14.80;99.90;;;-141.84;70.99;20291.47;5033100;28;20244;-70
2023/04/23 06:37:29;;;;;;;4.88;3.00;;;14.80;99.90;;;-141.84;70.72;20313.84;5033039;28;20186;-72
2023/04/23 06:39:58;;;;;;;4.57;3.53;;;14.90;99.90;;;-141.84;71.48;20246.75;5032811;28;20741;-71
2023/04/23 06:42:26;;;;;;;3.63;3.33;;;14.90;99.90;;;-141.84;70.41;20289.44;5033292;28;20740;-72
2023/04/23 06:44:55;;;;;;;3.30;2.97;;;15.00;99.90;;;-141.84;71.16;20287.41;5033943;28;20201;-72
2023/04/23 06:47:25;;;;;;;4.18;3.78;;;15.00;99.90;;;-141.84;70.79;20332.13;5032879;28;20301;-72
2023/04/23 06:49:53;;;;;;;3.40;2.95;;;15.00;99.90;;;-141.84;70.55;20350.41;5032801;28;20226;-71
2023/04/23 06:52:21;;;;;;;3.33;3.00;;;15.10;99.90;;;-141.84;70.98;20330.09;5032788;28;20209;-72
2023/04/23 06:54:49;;;;;;;4.00;3.60;;;15.20;99.90;;;-141.84;70.83;20309.75;5032529;28;20609;-71
2023/04/23 06:57:17;;;;;;;3.42;3.15;;;15.20;99.90;;;-141.84;70.28;20354.47;5032401;28;20647;-71
2023/04/23 06:59:45;;;;;;;3.60;3.13;;;15.30;99.90;;;-141.84;71.04;20399.19;5032736;28;20202;-71
2023/04/23 07:02:13;;;;;;;4.00;2.80;;;15.30;99.90;;;-141.84;69.35;20393.09;5033952;28;20205;-71
2023/04/23 07:04:43;;;;;;;3.30;3.00;;;15.50;99.90;;;-141.84;69.90;20441.88;5033197;28;20716;-71
2023/04/23 07:07:12;;;;;;;3.28;3.00;;;15.60;99.90;;;-141.84;69.52;20435.78;5032799;28;20191;-71
2023/04/23 07:09:40;;;;;;;3.55;2.80;;;15.70;99.90;;;-141.84;68.72;20441.88;5033859;28;20233;-72
2023/04/23 07:12:08;;;;;;;3.17;2.88;;;15.70;99.90;;;-141.84;68.94;20460.19;5034587;28;20669;-71
2023/04/23 07:14:36;;;;;;;3.03;2.83;;;15.80;99.90;;;-141.84;68.62;20470.34;5034957;28;20769;-71
2023/04/23 07:17:05;;;;;;;3.33;2.30;;;15.80;99.90;;;-141.84;68.43;20468.31;5033813;28;20201;-72
2023/04/23 07:19:33;;;;;;;4.25;2.70;;;15.90;99.90;;;-141.84;68.04;20454.09;5033962;28;20229;-70
2023/04/23 07:22:02;;;;;;;2.60;2.40;;;15.80;99.90;;;-141.84;69.65;20374.81;5036200;28;20213;-70
2023/04/23 07:24:31;;;;;;;6.22;3.25;;;15.70;99.90;;;-141.84;70.57;20391.06;5038988;28;20248;-73
2023/04/23 07:26:59;;;;;;;3.70;2.40;;;15.40;99.90;;;-141.84;72.07;20299.59;5037704;28;20234;-73
2023/04/23 07:29:27;;;;;;;2.97;2.50;;;15.20;99.90;;;-141.84;75.08;20191.88;5039143;28;20221;-70
2023/04/23 07:31:56;;;;;;;2.70;2.50;;;14.90;99.90;;;-141.84;77.09;20187.81;5039024;28;20205;-71
2023/04/23 07:34:24;;;;;;;3.20;2.90;;;14.60;99.90;;;-141.84;78.86;20147.16;5039152;28;20204;-72
2023/04/23 07:36:52;;;;;;;2.80;2.60;;;14.40;99.90;;;-141.84;80.63;20098.38;5039178;28;20708;-71
2023/04/23 07:39:22;;;;;;;3.85;2.90;;;14.20;99.90;;;-141.84;82.25;20063.81;5039863;28;20361;-73
2023/04/23 07:41:50;;;;;;;3.90;3.00;;;14.20;99.90;;;-141.84;82.88;20094.31;5039253;28;20210;-71
2023/04/23 07:44:18;;;;;;;3.65;3.35;;;14.20;99.90;;;-141.84;81.77;20090.25;5039695;28;20198;-72
2023/04/23 07:46:46;;;;;;;3.35;3.05;;;14.20;99.90;;;-141.84;81.94;20102.44;5039267;28;20208;-74
2023/04/23 07:49:15;;;;;;;4.17;3.37;;;14.20;99.90;;;-141.84;82.23;20096.34;5038744;28;20280;-71
2023/04/23 07:51:43;;;;;;;3.75;3.17;;;14.30;99.90;;;-141.84;81.68;20067.88;5038584;28;20202;-75
2023/04/23 07:54:11;;;;;;;3.72;3.10;;;14.30;99.90;;;-141.84;80.34;20128.88;5037808;28;20593;-72
2023/04/23 07:56:40;;;;;;;3.53;2.80;;;14.30;99.90;;;-141.84;80.27;20098.38;5037428;28;20202;-72
2023/04/23 07:59:10;;;;;;;3.22;2.83;;;14.30;99.90;;;-141.84;81.01;20053.66;5037268;28;20193;-72
2023/04/23 08:01:38;;;;;;;3.42;3.10;;;14.20;99.90;;;-141.84;81.66;20086.19;5038726;28;20761;-72
2023/04/23 08:04:06;;;;;;;3.30;3.10;;;14.30;99.90;;;-141.84;80.75;20096.34;5039395;28;20210;-71
2023/04/23 08:06:35;;;;;;;3.22;3.03;;;14.30;99.90;;;-141.84;79.60;20086.19;5039899;28;20651;-72
2023/04/23 08:09:05;;;;;;;4.13;3.20;;;14.30;99.90;;;-141.84;79.22;20134.97;5039367;28;20244;-73
2023/04/23 08:11:33;;;;;;;3.55;3.25;;;14.30;99.90;;;-141.84;79.51;20114.63;5037857;28;20233;-73
2023/04/23 08:14:02;;;;;;;3.40;3.10;;;14.30;99.90;;;-141.84;79.15;20114.63;5038528;28;20206;-72
2023/04/23 08:16:30;;;;;;;2.80;2.60;;;14.30;99.90;;;-141.84;78.98;20088.22;5037798;28;20206;-71
2023/04/23 08:18:59;;;;;;;3.33;3.03;;;14.30;99.90;;;-141.84;78.44;20193.91;5037688;28;20196;-72
2023/04/23 08:21:32;;;;;;;2.87;2.67;;;14.50;99.90;;;-141.84;75.89;20191.88;5038722;28;20642;-71
2023/04/23 08:24:01;;;;;;;2.13;2.03;;;14.60;99.90;;;-141.84;73.49;20260.97;5038933;28;20212;-71
2023/04/23 08:26:30;;;;;;;2.00;1.80;;;14.80;99.90;;;-141.84;71.71;20250.81;5035409;28;20233;-72
2023/04/23 08:28:59;;;;;;;2.58;1.88;;;14.80;99.90;;;-141.84;70.92;20271.16;5035377;28;20218;-72
2023/04/23 08:31:28;;;;;;;1.60;1.50;;;14.90;99.90;;;-141.84;69.61;20267.09;5036854;28;20541;-72
2023/04/23 08:33:58;;;;;;;1.80;1.70;;;14.90;99.90;;;-141.84;67.48;20319.94;5036926;28;20205;-71
2023/04/23 08:36:26;;;;;;;2.85;1.50;;;15.10;99.90;;;-141.84;67.87;20342.28;5037581;28;20205;-72
2023/04/23 08:38:54;;;;;;;1.80;1.70;;;15.10;99.90;;;-141.84;67.10;20382.94;5036932;28;20561;-72
2023/04/23 08:41:27;;;;;;;1.63;1.52;;;15.20;99.90;;;-141.84;65.58;20411.41;5035979;28;20216;-71
2023/04/23 08:44:07;;;;;;;1.70;1.60;;;15.30;99.90;;;-141.84;66.12;20425.63;5036504;28;20544;-71
2023/04/23 08:46:40;;;;;;;1.83;1.70;;;15.40;99.90;;;-141.84;63.99;20508.97;5035065;28;20194;-71
2023/04/23 08:49:14;;;;;;;1.70;1.60;;;15.70;99.90;;;-141.84;63.66;20535.41;5034931;28;20214;-71
2023/04/23 08:51:48;;;;;;;2.08;1.67;;;15.90;99.90;;;-141.84;63.24;20618.72;5035016;28;20236;-71
2023/04/23 08:54:25;;;;;;;2.03;1.92;;;16.20;99.90;;;-141.84;60.70;20708.19;5034875;28;20200;-72
2023/04/23 08:56:56;;;;;;;2.00;1.90;;;16.60;99.90;;;-141.84;59.61;20748.84;5034499;28;20596;-73
2023/04/23 08:59:26;;;;;;;2.33;1.90;;;16.80;99.90;;;-141.84;57.17;20832.19;5034604;28;20554;-73
2023/04/23 09:01:58;;;;;;;1.80;1.70;;;17.20;99.90;;;-141.84;57.92;20858.59;5034669;28;20206;-72
2023/04/23 09:04:28;;;;;;;2.40;2.10;;;17.30;99.90;;;-141.84;54.91;20905.38;5034673;28;20241;-71
2023/04/23 09:06:56;;;;;;;2.50;1.88;;;17.50;99.90;;;-141.84;55.32;20925.69;5034417;28;20206;-70
2023/04/23 09:09:28;;;;;;;2.40;2.20;;;17.70;99.90;;;-141.84;54.88;20998.88;5034453;28;20305;-71
2023/04/23 09:11:56;;;;;;;2.88;2.67;;;17.80;99.90;;;-141.84;53.84;21041.56;5034445;28;20213;-71
2023/04/23 09:14:25;;;;;;;2.70;2.17;;;17.80;99.90;;;-141.84;53.25;21017.19;5034443;28;20268;-72
2023/04/23 09:16:55;;;;;;;2.33;2.13;;;17.80;99.90;;;-141.84;54.23;21000.91;5034380;28;20207;-73
2023/04/23 09:19:27;;;;;;;2.85;2.65;;;17.90;99.90;;;-141.84;56.04;20944.00;5034342;28;20678;-74
2023/04/23 09:21:56;;;;;;;3.35;2.38;;;17.70;99.90;;;-141.84;55.71;20860.66;5033391;28;20210;-72
2023/04/23 09:24:25;;;;;;;2.78;2.45;;;17.50;99.90;;;-141.84;55.14;20885.03;5034473;28;20202;-71
2023/04/23 09:26:53;;;;;;;2.80;2.60;;;17.60;99.90;;;-141.84;55.99;20919.59;5033777;28;20252;-71
2023/04/23 09:29:24;;;;;;;2.95;2.75;;;17.70;99.90;;;-141.84;56.09;20939.94;5033979;28;20206;-71
2023/04/23 09:32:08;;;;;;;2.47;2.28;;;17.70;99.90;;;-141.84;56.10;20874.88;5034203;28;20194;-71
2023/04/23 09:34:37;;;;;;;3.10;2.90;;;17.50;99.90;;;-141.84;55.65;20878.94;5033714;28;20197;-72
2023/04/23 09:37:09;;;;;;;3.03;2.83;;;17.40;99.90;;;-141.84;55.53;20870.81;5033834;28;20213;-71
2023/04/23 09:39:39;;;;;;;3.00;2.70;;;17.40;99.90;;;-141.84;55.17;20917.56;5033774;28;20178;-70
2023/04/23 09:42:10;;;;;;;3.13;2.83;;;17.50;99.90;;;-141.84;54.88;20968.38;5033095;28;20198;-70
2023/04/23 09:44:38;;;;;;;2.85;2.65;;;17.70;99.90;;;-141.84;53.95;21027.34;5024935;28;20198;-70
2023/04/23 09:47:10;;;;;;;2.95;2.72;;;17.90;99.90;;;-141.84;53.76;21019.22;5033029;28;20210;-70
2023/04/23 09:49:49;;;;;;;2.85;2.58;;;17.90;99.90;;;-141.84;53.46;21076.13;5033059;28;20252;-70
2023/04/23 09:52:18;;;;;;;3.47;3.17;;;18.20;99.90;;;-141.84;52.39;21057.84;5033223;28;20233;-70
2023/04/23 09:54:46;;;;;;;3.05;2.75;;;18.20;99.90;;;-141.84;53.24;21049.72;5032924;28;20749;-70
2023/04/23 09:57:14;;;;;;;3.13;2.92;;;18.20;99.90;;;-141.84;51.61;21102.56;5032877;28;20890;-70
2023/04/23 09:59:43;;;;;;;3.50;3.20;;;18.20;99.90;;;-141.84;51.64;21082.25;5032927;28;20225;-70
2023/04/23 10:02:20;;;;;;;4.65;2.90;;;18.20;99.90;;;-141.84;51.92;21063.94;5032718;28;20315;-70
2023/04/23 10:04:52;;;;;;;3.92;3.20;;;18.10;99.90;;;-141.84;52.44;21057.84;5032525;28;20293;-70
2023/04/23 10:07:34;;;;;;;3.35;3.05;;;17.90;99.90;;;-141.84;52.44;21009.03;5033145;28;20205;-71
2023/04/23 10:10:03;;;;;;;2.78;2.58;;;17.90;99.90;;;-141.84;51.78;20966.34;5032180;28;20728;-71
2023/04/23 10:12:31;;;;;;;2.95;2.70;;;17.90;99.90;;;-141.84;51.47;21004.97;5043526;28;20641;-71
2023/04/23 10:15:19;;;;;;;2.70;2.50;;;17.90;99.90;;;-141.84;51.92;20958.22;5052694;28;20235;-70